createdAt,value
2023-01-07T00:01:36.635Z,163.80
2023-01-07T00:04:07.277Z,161.80
2023-01-07T00:06:37.724Z,167.63
2023-01-07T00:09:07.137Z,165.60
2023-01-07T00:11:38.954Z,170.30
2023-01-07T00:14:09.050Z,174.60
2023-01-07T00:16:37.470Z,195.77
2023-01-07T00:19:07.011Z,179.00
2023-01-07T00:21:34.371Z,188.90
2023-01-07T00:24:05.110Z,181.50
2023-01-07T00:26:36.702Z,180.40
2023-01-07T00:29:05.641Z,190.07
2023-01-07T00:31:36.329Z,192.87
2023-01-07T00:34:04.255Z,183.47
2023-01-07T00:36:35.757Z,179.13
2023-01-07T00:39:17.109Z,175.43
2023-01-07T00:42:03.676Z,182.00
2023-01-07T00:44:30.996Z,176.57
2023-01-07T00:46:59.567Z,169.70
2023-01-07T00:49:27.213Z,174.47
2023-01-07T00:51:54.417Z,176.40
2023-01-07T00:54:21.922Z,179.90
2023-01-07T00:56:49.102Z,182.73
2023-01-07T00:59:16.642Z,180.70
2023-01-07T01:01:45.407Z,174.57
2023-01-07T01:04:12.613Z,178.90
2023-01-07T01:06:39.720Z,177.17
2023-01-07T01:09:07.742Z,179.17
2023-01-07T01:11:35.238Z,190.47
2023-01-07T01:14:02.319Z,187.73
2023-01-07T01:16:29.438Z,182.47
2023-01-07T01:18:56.598Z,179.47
2023-01-07T01:21:24.021Z,184.63
2023-01-07T01:23:51.606Z,189.07
2023-01-07T01:26:19.115Z,188.90
2023-01-07T01:28:46.547Z,186.07
2023-01-07T01:31:18.715Z,185.90
2023-01-07T01:33:57.647Z,184.70
2023-01-07T01:36:25.397Z,199.27
2023-01-07T01:38:57.455Z,195.80
2023-01-07T01:41:27.057Z,188.23
2023-01-07T01:43:57.576Z,193.50
2023-01-07T01:46:37.922Z,193.30
2023-01-07T01:49:33.395Z,193.33
2023-01-07T01:52:12.121Z,187.23
2023-01-07T01:54:49.026Z,196.23
2023-01-07T01:57:19.591Z,193.00
2023-01-07T01:59:51.249Z,188.83
2023-01-07T02:02:29.829Z,188.60
2023-01-07T02:04:57.648Z,182.40
2023-01-07T02:07:25.071Z,186.03
2023-01-07T02:10:20.944Z,188.87
2023-01-07T02:13:05.280Z,184.47
2023-01-07T02:15:38.423Z,195.57
2023-01-07T02:18:33.128Z,184.97
2023-01-07T02:21:56.445Z,186.20
2023-01-07T02:25:04.424Z,194.00
2023-01-07T02:27:39.719Z,176.23
2023-01-07T02:30:33.535Z,184.77
2023-01-07T02:33:20.642Z,182.30
2023-01-07T02:35:50.391Z,184.53
2023-01-07T02:38:35.776Z,190.30
2023-01-07T02:41:44.071Z,181.87
2023-01-07T02:44:23.936Z,187.13
2023-01-07T02:47:02.975Z,185.43
2023-01-07T02:49:30.078Z,191.20
2023-01-07T02:52:26.976Z,187.40
2023-01-07T02:55:08.616Z,185.97
2023-01-07T02:58:15.231Z,186.47
2023-01-07T03:01:06.708Z,183.63
2023-01-07T03:04:04.593Z,187.07
2023-01-07T03:07:09.519Z,191.10
2023-01-07T03:10:34.176Z,181.17
2023-01-07T03:13:17.106Z,182.37
2023-01-07T03:16:09.936Z,188.60
2023-01-07T03:18:48.179Z,189.27
2023-01-07T03:21:18.124Z,189.97
2023-01-07T03:23:52.164Z,195.10
2023-01-07T03:26:26.650Z,192.00
2023-01-07T03:28:55.721Z,187.73
2023-01-07T03:31:23.184Z,184.23
2023-01-07T03:34:06.932Z,193.90
2023-01-07T03:36:45.747Z,193.80
2023-01-07T03:39:13.984Z,195.03
2023-01-07T03:42:00.684Z,190.27
2023-01-07T03:44:28.147Z,193.33
2023-01-07T03:46:55.541Z,190.47
2023-01-07T03:49:22.661Z,205.90
2023-01-07T03:51:50.245Z,191.13
2023-01-07T03:54:17.561Z,190.43
2023-01-07T03:56:44.728Z,197.07
2023-01-07T03:59:12.874Z,183.67
2023-01-07T04:01:40.029Z,191.33
2023-01-07T04:04:07.487Z,190.87
2023-01-07T04:06:34.998Z,188.93
2023-01-07T04:09:02.280Z,201.93
2023-01-07T04:11:29.859Z,186.80
2023-01-07T04:14:00.721Z,179.87
2023-01-07T04:16:29.611Z,182.43
2023-01-07T04:18:56.782Z,186.80
2023-01-07T04:21:23.954Z,179.47
2023-01-07T04:23:51.073Z,181.93
2023-01-07T04:26:18.189Z,176.23
2023-01-07T04:28:45.630Z,181.00
2023-01-07T04:31:12.917Z,182.20
2023-01-07T04:33:40.714Z,178.87
2023-01-07T04:36:09.032Z,178.40
2023-01-07T04:38:37.444Z,180.03
2023-01-07T04:41:05.504Z,173.87
2023-01-07T04:43:32.598Z,180.43
2023-01-07T04:46:00.175Z,184.77
2023-01-07T04:48:28.709Z,180.93
2023-01-07T04:50:56.581Z,178.70
2023-01-07T04:53:23.796Z,179.40
2023-01-07T04:55:53.009Z,182.13
2023-01-07T04:58:21.167Z,184.40
2023-01-07T05:00:48.735Z,184.00
2023-01-07T05:03:16.843Z,190.07
2023-01-07T05:05:45.563Z,284.00
2023-01-07T05:08:13.132Z,261.83
2023-01-07T05:10:40.488Z,221.67
2023-01-07T05:13:08.111Z,239.90
2023-01-07T05:15:35.958Z,199.67
2023-01-07T05:18:03.207Z,189.33
2023-01-07T05:20:30.248Z,174.97
2023-01-07T05:22:58.671Z,180.70
2023-01-07T05:25:25.759Z,176.40
2023-01-07T05:27:52.947Z,181.60
2023-01-07T05:30:23.602Z,182.07
2023-01-07T05:32:50.812Z,176.70
2023-01-07T05:35:18.411Z,177.63
2023-01-07T05:37:46.256Z,180.07
2023-01-07T05:40:13.775Z,178.77
2023-01-07T05:42:41.687Z,174.97
2023-01-07T05:45:09.441Z,170.27
2023-01-07T05:47:36.566Z,173.80
2023-01-07T05:50:03.968Z,174.70
2023-01-07T05:52:31.000Z,174.33
2023-01-07T05:54:58.070Z,170.80
2023-01-07T05:57:25.122Z,173.60
2023-01-07T05:59:52.133Z,178.57
2023-01-07T06:02:19.145Z,171.50
2023-01-07T06:04:46.274Z,174.77
2023-01-07T06:07:13.369Z,178.13
2023-01-07T06:09:40.805Z,172.17
2023-01-07T06:12:08.005Z,180.87
2023-01-07T06:14:35.049Z,175.27
2023-01-07T06:17:02.121Z,172.33
2023-01-07T06:19:29.117Z,182.83
2023-01-07T06:21:56.157Z,180.43
2023-01-07T06:24:23.659Z,177.97
2023-01-07T06:26:50.736Z,176.97
2023-01-07T06:29:18.008Z,177.80
2023-01-07T06:31:45.488Z,170.50
2023-01-07T06:34:12.502Z,170.80
2023-01-07T06:36:39.697Z,173.57
2023-01-07T06:39:06.753Z,173.57
2023-01-07T06:41:33.904Z,169.27
2023-01-07T06:44:00.931Z,179.43
2023-01-07T06:46:28.141Z,169.03
2023-01-07T06:48:56.006Z,176.83
2023-01-07T06:51:23.029Z,174.60
2023-01-07T06:53:50.078Z,178.57
2023-01-07T06:56:17.207Z,169.97
2023-01-07T06:58:44.282Z,170.80
2023-01-07T07:01:11.838Z,175.10
2023-01-07T07:03:39.009Z,174.77
2023-01-07T07:06:06.503Z,183.60
2023-01-07T07:08:33.723Z,201.60
2023-01-07T07:11:00.804Z,207.27
2023-01-07T07:13:28.261Z,198.67
2023-01-07T07:15:55.334Z,176.63
2023-01-07T07:18:22.436Z,179.03
2023-01-07T07:20:49.532Z,182.03
2023-01-07T07:23:16.700Z,178.70
2023-01-07T07:25:44.333Z,184.37
2023-01-07T07:28:11.584Z,217.43
2023-01-07T07:30:46.630Z,194.73
2023-01-07T07:33:19.025Z,198.83
2023-01-07T07:35:46.583Z,197.57
2023-01-07T07:38:13.801Z,207.60
2023-01-07T07:40:40.847Z,199.67
2023-01-07T07:43:10.224Z,192.07
2023-01-07T07:45:42.727Z,182.73
2023-01-07T07:48:13.796Z,190.53
2023-01-07T07:50:40.874Z,183.57
2023-01-07T07:53:10.400Z,172.83
2023-01-07T07:55:38.644Z,181.83
2023-01-07T07:58:06.551Z,181.23
2023-01-07T08:00:33.807Z,181.83
2023-01-07T08:03:01.686Z,175.47
2023-01-07T08:05:29.852Z,177.83
2023-01-07T08:07:58.236Z,199.63
2023-01-07T08:10:29.226Z,198.87
2023-01-07T08:12:56.321Z,214.70
2023-01-07T08:15:23.368Z,210.03
2023-01-07T08:17:58.779Z,216.70
2023-01-07T08:20:27.180Z,224.50
2023-01-07T08:22:54.523Z,223.37
2023-01-07T08:25:21.751Z,211.77
2023-01-07T08:27:48.882Z,216.93
2023-01-07T08:30:17.020Z,221.80
2023-01-07T08:32:44.073Z,201.50
2023-01-07T08:35:11.834Z,211.40
2023-01-07T08:37:38.933Z,214.77
2023-01-07T08:40:07.403Z,198.57
2023-01-07T08:42:34.466Z,244.40
2023-01-07T08:45:01.594Z,230.00
2023-01-07T08:47:28.725Z,203.73
2023-01-07T08:49:55.797Z,209.23
2023-01-07T08:52:24.013Z,199.70
2023-01-07T08:54:51.418Z,191.90
2023-01-07T08:57:19.393Z,183.17
2023-01-07T08:59:46.422Z,199.13
2023-01-07T09:02:16.722Z,186.60
2023-01-07T09:04:44.417Z,188.20
2023-01-07T09:07:12.534Z,186.40
2023-01-07T09:09:39.684Z,178.47
2023-01-07T09:12:10.664Z,184.47
2023-01-07T09:14:37.977Z,180.50
2023-01-07T09:17:05.115Z,186.53
2023-01-07T09:19:32.165Z,179.60
2023-01-07T09:21:59.283Z,199.90
2023-01-07T09:24:26.371Z,190.57
2023-01-07T09:26:53.521Z,190.37
2023-01-07T09:29:20.627Z,191.60
2023-01-07T09:31:47.707Z,188.87
2023-01-07T09:34:14.794Z,210.37
2023-01-07T09:36:41.910Z,197.50
2023-01-07T09:39:11.834Z,206.33
2023-01-07T09:42:05.986Z,192.60
2023-01-07T09:44:57.530Z,204.60
2023-01-07T09:47:29.492Z,223.27
2023-01-07T09:50:05.770Z,221.60
2023-01-07T09:52:45.963Z,239.33
2023-01-07T09:55:35.972Z,306.70
2023-01-07T09:58:03.831Z,284.33
2023-01-07T10:00:33.576Z,205.67
2023-01-07T10:03:19.134Z,223.00
2023-01-07T10:06:07.336Z,197.43
2023-01-07T10:09:21.859Z,232.50
2023-01-07T10:12:20.572Z,208.47
2023-01-07T10:15:31.759Z,215.90
2023-01-07T10:18:12.422Z,205.67
2023-01-07T10:21:24.031Z,193.30
2023-01-07T10:24:03.288Z,189.30
2023-01-07T10:26:48.408Z,196.70
2023-01-07T10:29:52.190Z,189.50
2023-01-07T10:32:23.176Z,190.30
2023-01-07T10:34:57.118Z,187.97
2023-01-07T10:37:37.289Z,195.90
2023-01-07T10:40:43.049Z,187.20
2023-01-07T10:43:59.960Z,190.73
2023-01-07T10:46:45.200Z,204.97
2023-01-07T10:50:05.342Z,196.70
2023-01-07T10:52:49.634Z,191.23
2023-01-07T10:55:37.786Z,191.23
2023-01-07T10:58:05.202Z,187.10
2023-01-07T11:00:33.159Z,186.30
2023-01-07T11:03:00.616Z,193.47
2023-01-07T11:05:38.749Z,184.07
2023-01-07T11:08:16.367Z,196.00
2023-01-07T11:10:43.507Z,188.60
2023-01-07T11:13:20.596Z,191.57
2023-01-07T11:15:53.350Z,191.53
2023-01-07T11:18:41.624Z,185.10
2023-01-07T11:21:08.719Z,189.43
2023-01-07T11:23:55.839Z,188.50
2023-01-07T11:26:32.671Z,187.20
2023-01-07T11:29:15.757Z,187.83
2023-01-07T11:31:52.817Z,193.13
2023-01-07T11:34:25.901Z,186.53
2023-01-07T11:36:53.098Z,194.37
2023-01-07T11:39:33.796Z,198.13
2023-01-07T11:42:37.576Z,190.13
2023-01-07T11:45:30.445Z,190.20
2023-01-07T11:48:07.386Z,187.30
2023-01-07T11:50:44.621Z,189.43
2023-01-07T11:53:14.604Z,187.50
2023-01-07T11:56:27.127Z,189.73
2023-01-07T11:59:17.060Z,187.77
2023-01-07T12:01:51.192Z,189.93
2023-01-07T12:04:36.207Z,187.40
2023-01-07T12:07:15.602Z,192.80
2023-01-07T12:09:45.268Z,196.03
2023-01-07T12:12:34.776Z,198.80
2023-01-07T12:15:15.823Z,198.40
2023-01-07T12:17:46.827Z,198.70
2023-01-07T12:20:47.823Z,195.50
2023-01-07T12:23:58.072Z,191.43
2023-01-07T12:26:32.669Z,199.63
2023-01-07T12:29:43.167Z,195.33
2023-01-07T12:32:28.912Z,189.57
2023-01-07T12:35:14.959Z,189.37
2023-01-07T12:37:53.847Z,191.50
2023-01-07T12:40:33.811Z,186.37
2023-01-07T12:43:30.606Z,191.10
2023-01-07T12:46:07.822Z,190.07
2023-01-07T12:48:52.965Z,187.23
2023-01-07T12:51:35.266Z,183.50
2023-01-07T12:54:14.779Z,191.73
2023-01-07T12:57:12.365Z,192.47
2023-01-07T12:59:49.495Z,190.37
2023-01-07T13:02:35.745Z,196.10
2023-01-07T13:05:37.739Z,194.47
2023-01-07T13:08:25.091Z,195.67
2023-01-07T13:11:12.811Z,196.67
2023-01-07T13:13:51.366Z,196.03
2023-01-07T13:16:18.486Z,196.53
2023-01-07T13:18:45.564Z,203.97
2023-01-07T13:21:16.133Z,195.10
2023-01-07T13:24:55.584Z,192.70
2023-01-07T13:27:46.484Z,194.07
2023-01-07T13:30:30.946Z,190.67
2023-01-07T13:33:18.201Z,193.13
2023-01-07T13:35:57.178Z,189.50
2023-01-07T13:38:27.017Z,195.90
2023-01-07T13:42:03.220Z,188.30
2023-01-07T13:44:57.915Z,198.60
2023-01-07T13:47:36.840Z,190.57
2023-01-07T13:50:04.406Z,187.37
2023-01-07T13:52:33.683Z,192.97
2023-01-07T13:55:23.746Z,191.43
2023-01-07T13:57:51.029Z,193.07
2023-01-07T14:01:23.472Z,186.70
2023-01-07T14:04:03.489Z,187.23
2023-01-07T14:06:36.577Z,189.30
2023-01-07T14:09:13.518Z,186.33
2023-01-07T14:12:07.461Z,185.20
2023-01-07T14:14:49.156Z,192.27
2023-01-07T14:17:58.162Z,184.47
2023-01-07T14:20:39.926Z,206.33
2023-01-07T14:23:15.078Z,200.80
2023-01-07T14:25:53.382Z,192.00
2023-01-07T14:28:39.486Z,188.93
2023-01-07T14:31:20.230Z,198.23
2023-01-07T14:33:55.770Z,183.10
2023-01-07T14:36:22.805Z,181.40
2023-01-07T14:39:00.455Z,182.40
2023-01-07T14:41:27.606Z,185.87
2023-01-07T14:44:28.515Z,184.47
2023-01-07T14:46:55.707Z,182.57
2023-01-07T14:49:44.685Z,188.77
2023-01-07T14:52:19.620Z,184.20
2023-01-07T14:55:10.651Z,181.27
2023-01-07T14:57:56.246Z,189.67
2023-01-07T15:00:56.532Z,190.33
2023-01-07T15:03:44.787Z,198.57
2023-01-07T15:06:29.576Z,200.43
2023-01-07T15:09:44.989Z,203.33
2023-01-07T15:12:45.969Z,195.63
2023-01-07T15:15:43.531Z,218.77
2023-01-07T15:18:12.319Z,191.30
2023-01-07T15:20:59.462Z,191.10
2023-01-07T15:23:35.221Z,185.40
2023-01-07T15:26:17.516Z,195.00
2023-01-07T15:29:11.284Z,184.57
2023-01-07T15:32:15.128Z,192.43
2023-01-07T15:34:42.329Z,197.40
2023-01-07T15:37:14.488Z,195.13
2023-01-07T15:39:49.548Z,190.60
2023-01-07T15:42:23.403Z,192.37
2023-01-07T15:44:58.700Z,193.13
2023-01-07T15:47:41.258Z,187.43
2023-01-07T15:50:26.950Z,192.37
2023-01-07T15:53:20.004Z,187.17
2023-01-07T15:55:51.957Z,190.53
2023-01-07T15:58:44.778Z,193.47
2023-01-07T16:01:24.093Z,189.97
2023-01-07T16:03:56.765Z,209.97
2023-01-07T16:06:46.983Z,205.77
2023-01-07T16:09:19.885Z,201.97
2023-01-07T16:11:47.156Z,211.33
2023-01-07T16:14:21.364Z,253.70
2023-01-07T16:16:49.218Z,238.13
2023-01-07T16:19:19.533Z,221.90
2023-01-07T16:21:59.169Z,217.10
2023-01-07T16:24:26.507Z,226.67
2023-01-07T16:26:59.324Z,237.33
2023-01-07T16:29:38.140Z,226.43
2023-01-07T16:32:07.129Z,225.53
2023-01-07T16:34:34.063Z,295.77
2023-01-07T16:37:03.185Z,259.47
2023-01-07T16:39:43.532Z,259.30
2023-01-07T16:42:27.568Z,221.67
2023-01-07T16:44:54.703Z,224.00
2023-01-07T16:47:27.049Z,222.00
2023-01-07T16:50:21.492Z,219.77
2023-01-07T16:52:57.239Z,217.27
2023-01-07T16:55:49.218Z,224.23
2023-01-07T16:58:33.817Z,229.60
2023-01-07T17:01:02.593Z,229.20
2023-01-07T17:03:34.352Z,232.30
2023-01-07T17:06:07.447Z,219.47
2023-01-07T17:08:35.718Z,208.87
2023-01-07T17:11:19.320Z,205.67
2023-01-07T17:13:46.390Z,214.73
2023-01-07T17:16:21.388Z,218.27
2023-01-07T17:18:48.798Z,208.73
2023-01-07T17:21:42.393Z,217.30
2023-01-07T17:24:47.867Z,215.47
2023-01-07T17:27:26.781Z,228.07
2023-01-07T17:29:54.344Z,272.17
2023-01-07T17:32:22.758Z,251.67
2023-01-07T17:34:50.388Z,252.27
2023-01-07T17:37:17.989Z,237.70
2023-01-07T17:39:45.220Z,238.57
2023-01-07T17:42:45.484Z,245.57
2023-01-07T17:45:18.970Z,231.60
2023-01-07T17:47:49.455Z,212.07
2023-01-07T17:50:19.015Z,216.37
2023-01-07T17:52:50.836Z,205.43
2023-01-07T17:55:26.164Z,206.53
2023-01-07T17:57:53.740Z,209.03
2023-01-07T18:00:25.293Z,213.53
2023-01-07T18:02:52.895Z,213.07
2023-01-07T18:05:24.397Z,207.23
2023-01-07T18:07:52.806Z,224.87
2023-01-07T18:10:26.569Z,219.83
2023-01-07T18:12:53.603Z,207.80
2023-01-07T18:15:25.907Z,228.63
2023-01-07T18:17:53.510Z,204.23
2023-01-07T18:20:22.646Z,208.27
2023-01-07T18:22:50.467Z,205.53
2023-01-07T18:25:21.480Z,204.27
2023-01-07T18:27:52.764Z,198.73
2023-01-07T18:30:22.422Z,210.13
2023-01-07T18:32:53.118Z,202.47
2023-01-07T18:35:20.403Z,206.13
2023-01-07T18:37:51.316Z,212.70
2023-01-07T18:40:19.185Z,209.43
2023-01-07T18:42:46.330Z,212.17
2023-01-07T18:45:13.663Z,207.70
2023-01-07T18:47:43.010Z,204.20
2023-01-07T18:50:10.207Z,210.57
2023-01-07T18:52:42.158Z,230.40
2023-01-07T18:55:10.826Z,217.97
2023-01-07T18:57:38.154Z,225.57
2023-01-07T19:00:06.300Z,224.00
2023-01-07T19:02:33.397Z,215.03
2023-01-07T19:05:00.824Z,227.93
2023-01-07T19:07:30.159Z,236.33
2023-01-07T19:09:57.331Z,243.73
2023-01-07T19:12:24.790Z,248.20
2023-01-07T19:14:51.818Z,238.37
2023-01-07T19:17:18.885Z,229.43
2023-01-07T19:19:48.601Z,228.20
2023-01-07T19:22:16.631Z,225.00
2023-01-07T19:24:44.622Z,217.07
2023-01-07T19:27:12.038Z,219.60
2023-01-07T19:29:39.157Z,205.00
2023-01-07T19:32:06.359Z,225.33
2023-01-07T19:34:33.436Z,217.10
2023-01-07T19:37:00.527Z,208.23
2023-01-07T19:39:27.988Z,211.47
2023-01-07T19:41:55.050Z,213.83
2023-01-07T19:44:22.099Z,217.77
2023-01-07T19:46:49.134Z,216.83
2023-01-07T19:49:16.186Z,206.90
2023-01-07T19:51:43.787Z,219.13
2023-01-07T19:54:16.963Z,211.60
2023-01-07T19:56:44.440Z,209.37
2023-01-07T19:59:11.715Z,213.47
2023-01-07T20:01:39.519Z,216.93
2023-01-07T20:04:08.388Z,212.60
2023-01-07T20:06:41.298Z,210.77
2023-01-07T20:09:11.137Z,206.10
2023-01-07T20:11:39.737Z,213.93
2023-01-07T20:14:07.816Z,225.37
2023-01-07T20:16:37.008Z,213.40
2023-01-07T20:19:05.335Z,211.77
2023-01-07T20:21:32.940Z,204.60
2023-01-07T20:24:00.149Z,208.13
2023-01-07T20:26:31.211Z,209.63
2023-01-07T20:28:59.761Z,208.20
2023-01-07T20:31:29.002Z,206.03
2023-01-07T20:33:56.164Z,213.17
2023-01-07T20:36:26.850Z,208.97
2023-01-07T20:38:54.317Z,205.07
2023-01-07T20:41:28.199Z,201.80
2023-01-07T20:43:59.184Z,204.77
2023-01-07T20:46:29.248Z,206.57
2023-01-07T20:48:57.649Z,198.87
2023-01-07T20:51:25.497Z,200.70
2023-01-07T20:53:52.952Z,200.97
2023-01-07T20:56:23.163Z,201.73
2023-01-07T20:58:50.947Z,205.07
2023-01-07T21:01:20.926Z,195.47
2023-01-07T21:03:48.552Z,201.60
2023-01-07T21:06:17.950Z,201.97
2023-01-07T21:08:47.770Z,195.00
2023-01-07T21:11:18.232Z,198.70
2023-01-07T21:13:46.138Z,199.67
2023-01-07T21:16:14.093Z,201.77
2023-01-07T21:18:41.793Z,199.40
2023-01-07T21:21:19.080Z,196.40
2023-01-07T21:23:47.723Z,195.77
2023-01-07T21:26:15.313Z,197.83
2023-01-07T21:28:44.489Z,196.73
2023-01-07T21:31:15.387Z,200.30
2023-01-07T21:33:43.025Z,201.47
2023-01-07T21:36:18.659Z,206.67
2023-01-07T21:38:46.919Z,204.67
2023-01-07T21:41:17.533Z,198.37
2023-01-07T21:43:45.113Z,203.73
2023-01-07T21:46:13.578Z,198.63
2023-01-07T21:48:45.828Z,199.13
2023-01-07T21:51:23.523Z,201.73
2023-01-07T21:53:55.825Z,200.30
2023-01-07T21:56:25.029Z,202.13
2023-01-07T21:58:52.331Z,206.33
2023-01-07T22:01:20.092Z,199.57
2023-01-07T22:03:49.432Z,204.13
2023-01-07T22:06:32.923Z,204.50
2023-01-07T22:09:06.354Z,203.43
2023-01-07T22:11:35.705Z,204.87
2023-01-07T22:14:02.856Z,201.20
2023-01-07T22:16:32.277Z,204.50
2023-01-07T22:19:00.141Z,202.73
2023-01-07T22:21:27.532Z,208.77
2023-01-07T22:23:54.631Z,208.30
2023-01-07T22:26:22.322Z,202.30
2023-01-07T22:28:54.437Z,207.87
2023-01-07T22:31:25.061Z,205.07
2023-01-07T22:33:52.910Z,199.67
2023-01-07T22:36:39.845Z,207.90
2023-01-07T22:39:22.563Z,204.73
2023-01-07T22:41:54.153Z,206.30
2023-01-07T22:44:30.292Z,203.90
2023-01-07T22:46:57.577Z,204.80
2023-01-07T22:49:27.426Z,205.57
2023-01-07T22:51:55.047Z,200.67
2023-01-07T22:54:22.492Z,203.37
2023-01-07T22:56:50.128Z,211.47
2023-01-07T22:59:17.220Z,201.77
2023-01-07T23:01:44.659Z,206.83
2023-01-07T23:04:11.833Z,207.87
2023-01-07T23:06:39.305Z,208.83
2023-01-07T23:09:06.442Z,206.43
2023-01-07T23:11:48.867Z,212.30
2023-01-07T23:14:21.258Z,204.47
2023-01-07T23:16:49.601Z,207.37
2023-01-07T23:19:18.691Z,202.93
2023-01-07T23:21:51.426Z,211.23
2023-01-07T23:24:19.300Z,210.70
2023-01-07T23:26:48.861Z,210.53
2023-01-07T23:29:16.374Z,217.53
2023-01-07T23:31:43.648Z,209.80
2023-01-07T23:34:10.840Z,217.97
2023-01-07T23:36:39.289Z,208.60
2023-01-07T23:39:07.095Z,207.23
2023-01-07T23:41:34.311Z,211.67
2023-01-07T23:44:01.381Z,207.37
2023-01-07T23:46:28.580Z,205.20
2023-01-07T23:48:55.614Z,209.47
2023-01-07T23:51:22.679Z,213.40
2023-01-07T23:53:50.160Z,208.30
2023-01-07T23:56:21.571Z,215.60
2023-01-07T23:58:50.231Z,208.80
